createdAt,value
2022-12-05T00:01:39.432Z,4.54
2022-12-05T00:04:09.887Z,4.75
2022-12-05T00:06:40.249Z,4.57
2022-12-05T00:09:10.372Z,4.35
2022-12-05T00:11:42.775Z,4.65
2022-12-05T00:14:11.797Z,4.53
2022-12-05T00:16:42.010Z,4.43
2022-12-05T00:19:12.264Z,4.50
2022-12-05T00:21:40.324Z,4.36
2022-12-05T00:24:10.662Z,4.35
2022-12-05T00:26:39.993Z,4.64
2022-12-05T00:29:08.028Z,4.62
2022-12-05T00:31:36.364Z,4.46
2022-12-05T00:34:04.942Z,4.47
2022-12-05T00:36:35.401Z,4.36
2022-12-05T00:39:07.005Z,4.26
2022-12-05T00:41:34.912Z,4.41
2022-12-05T00:44:05.418Z,4.41
2022-12-05T00:46:34.565Z,4.47
2022-12-05T00:49:04.114Z,4.48
2022-12-05T00:51:34.505Z,4.61
2022-12-05T00:54:05.470Z,4.56
2022-12-05T00:56:34.160Z,4.47
2022-12-05T00:59:04.547Z,4.38
2022-12-05T01:01:34.150Z,4.37
2022-12-05T01:04:06.080Z,4.24
2022-12-05T01:06:34.212Z,4.33
2022-12-05T01:09:02.936Z,4.29
2022-12-05T01:11:33.066Z,4.03
2022-12-05T01:14:04.571Z,4.15
2022-12-05T01:16:34.564Z,4.36
2022-12-05T01:19:05.405Z,4.35
2022-12-05T01:21:33.682Z,4.37
2022-12-05T01:24:01.910Z,4.39
2022-12-05T01:26:29.953Z,4.51
2022-12-05T01:28:58.077Z,4.20
2022-12-05T01:31:29.489Z,4.19
2022-12-05T01:33:59.693Z,4.23
2022-12-05T01:36:28.762Z,4.24
2022-12-05T01:38:57.611Z,4.27
2022-12-05T01:41:28.602Z,4.16
2022-12-05T01:44:00.285Z,4.21
2022-12-05T01:46:31.560Z,4.44
2022-12-05T01:49:04.331Z,4.50
2022-12-05T01:51:34.819Z,4.32
2022-12-05T01:54:03.668Z,4.32
2022-12-05T01:56:33.864Z,4.13
2022-12-05T01:59:05.320Z,4.42
2022-12-05T02:01:35.198Z,4.57
2022-12-05T02:04:03.587Z,4.80
2022-12-05T02:06:33.214Z,4.82
2022-12-05T02:09:29.988Z,4.60
2022-12-05T02:12:02.032Z,4.38
2022-12-05T02:14:36.831Z,4.46
2022-12-05T02:17:11.717Z,4.49
2022-12-05T02:19:53.970Z,4.32
2022-12-05T02:22:39.317Z,4.43
2022-12-05T02:29:31.731Z,4.37
2022-12-05T02:32:08.475Z,4.40
2022-12-05T02:34:42.778Z,4.29
2022-12-05T02:37:17.096Z,4.50
2022-12-05T02:39:48.520Z,4.47
2022-12-05T02:42:22.873Z,4.65
2022-12-05T02:44:55.717Z,4.68
2022-12-05T02:47:29.416Z,4.61
2022-12-05T02:49:58.727Z,4.47
2022-12-05T02:52:28.751Z,4.55
2022-12-05T02:54:57.133Z,4.45
2022-12-05T02:57:25.303Z,4.56
2022-12-05T02:59:53.215Z,4.56
2022-12-05T03:02:28.146Z,4.57
2022-12-05T03:05:00.169Z,4.59
2022-12-05T03:07:30.771Z,4.70
2022-12-05T03:10:03.526Z,4.53
2022-12-05T03:12:34.957Z,4.36
2022-12-05T03:15:07.525Z,4.61
2022-12-05T03:17:40.718Z,4.61
2022-12-05T03:20:14.295Z,4.75
2022-12-05T03:22:49.753Z,4.53
2022-12-05T03:25:18.732Z,4.47
2022-12-05T03:27:51.657Z,4.49
2022-12-05T03:30:21.816Z,4.59
2022-12-05T03:32:58.929Z,4.62
2022-12-05T03:35:36.663Z,4.63
2022-12-05T03:38:10.619Z,4.56
2022-12-05T03:40:43.670Z,4.43
2022-12-05T03:43:18.170Z,4.56
2022-12-05T03:45:50.900Z,4.61
2022-12-05T03:48:28.154Z,4.57
2022-12-05T03:50:58.842Z,4.57
2022-12-05T03:53:30.721Z,4.51
2022-12-05T03:56:03.362Z,4.44
2022-12-05T03:58:38.284Z,4.62
2022-12-05T04:01:08.917Z,4.45
2022-12-05T04:03:45.136Z,4.40
2022-12-05T04:06:24.216Z,4.71
2022-12-05T04:08:56.027Z,4.82
2022-12-05T04:11:27.638Z,4.90
2022-12-05T04:14:00.010Z,4.73
2022-12-05T04:16:50.261Z,4.74
2022-12-05T04:19:26.662Z,4.98
2022-12-05T04:21:56.878Z,5.00
2022-12-05T04:24:47.921Z,5.04
2022-12-05T04:27:24.132Z,5.06
2022-12-05T04:30:01.264Z,5.18
2022-12-05T04:32:36.129Z,4.84
2022-12-05T04:35:12.902Z,4.82
2022-12-05T04:37:45.755Z,4.74
2022-12-05T04:40:19.032Z,4.65
2022-12-05T04:42:48.670Z,4.84
2022-12-05T04:45:20.439Z,4.99
2022-12-05T04:47:52.659Z,4.53
2022-12-05T04:50:24.201Z,4.70
2022-12-05T04:52:56.430Z,4.80
2022-12-05T04:55:28.118Z,4.76
2022-12-05T04:58:05.725Z,4.74
2022-12-05T05:00:39.282Z,4.84
2022-12-05T05:03:13.239Z,4.77
2022-12-05T05:05:48.068Z,4.77
2022-12-05T05:08:26.008Z,4.72
2022-12-05T05:11:14.716Z,4.72
2022-12-05T05:13:42.915Z,4.95
2022-12-05T05:16:18.227Z,4.93
2022-12-05T05:18:47.037Z,4.80
2022-12-05T05:21:21.866Z,4.81
2022-12-05T05:23:49.773Z,4.88
2022-12-05T05:26:18.833Z,4.82
2022-12-05T05:28:47.352Z,4.83
2022-12-05T05:31:16.082Z,5.07
2022-12-05T05:33:44.059Z,4.96
2022-12-05T05:36:14.607Z,4.89
2022-12-05T05:38:49.430Z,4.74
2022-12-05T05:41:19.876Z,4.81
2022-12-05T05:43:48.573Z,4.96
2022-12-05T05:46:19.423Z,4.77
2022-12-05T05:48:47.551Z,4.44
2022-12-05T05:51:17.592Z,4.44
2022-12-05T05:53:47.026Z,4.49
2022-12-05T05:56:21.156Z,4.79
2022-12-05T05:58:50.291Z,4.80
2022-12-05T06:01:21.362Z,4.86
2022-12-05T06:03:50.849Z,4.81
2022-12-05T06:06:20.071Z,4.80
2022-12-05T06:08:49.711Z,4.88
2022-12-05T06:11:25.486Z,4.93
2022-12-05T06:13:54.142Z,4.75
2022-12-05T06:16:22.478Z,4.69
2022-12-05T06:18:51.135Z,4.58
2022-12-05T06:21:19.112Z,4.55
2022-12-05T06:23:47.142Z,4.38
2022-12-05T06:26:20.735Z,4.41
2022-12-05T06:28:49.319Z,4.36
2022-12-05T06:31:19.082Z,4.08
2022-12-05T06:33:47.644Z,4.18
2022-12-05T06:36:18.029Z,4.34
2022-12-05T06:38:46.087Z,4.39
2022-12-05T06:41:18.692Z,4.47
2022-12-05T06:43:47.459Z,4.32
2022-12-05T06:46:16.581Z,4.33
2022-12-05T06:48:44.591Z,4.32
2022-12-05T06:51:13.793Z,4.42
2022-12-05T06:53:41.791Z,4.33
2022-12-05T06:56:12.784Z,4.33
2022-12-05T06:58:42.455Z,4.09
2022-12-05T07:01:30.776Z,4.31
2022-12-05T07:03:59.173Z,4.27
2022-12-05T07:06:27.635Z,4.15
2022-12-05T07:08:56.060Z,4.28
2022-12-05T07:11:24.086Z,4.31
2022-12-05T07:13:53.807Z,4.49
2022-12-05T07:16:21.828Z,4.53
2022-12-05T07:18:50.317Z,4.68
2022-12-05T07:21:20.329Z,4.61
2022-12-05T07:23:50.261Z,4.11
2022-12-05T07:26:20.748Z,4.40
2022-12-05T07:28:49.207Z,4.28
2022-12-05T07:31:20.717Z,4.39
2022-12-05T07:33:48.876Z,4.52
2022-12-05T07:36:19.368Z,4.27
2022-12-05T07:38:47.753Z,4.37
2022-12-05T07:41:20.794Z,4.22
2022-12-05T07:43:48.801Z,4.57
2022-12-05T07:46:18.295Z,4.46
2022-12-05T07:48:46.945Z,4.44
2022-12-05T07:51:14.869Z,4.44
2022-12-05T07:53:44.520Z,4.71
2022-12-05T07:56:16.915Z,4.78
2022-12-05T07:58:45.596Z,4.71
2022-12-05T08:01:16.310Z,4.61
2022-12-05T08:03:46.247Z,4.62
2022-12-05T08:06:15.947Z,4.27
2022-12-05T08:08:44.276Z,4.46
2022-12-05T08:11:15.069Z,4.68
2022-12-05T08:13:43.652Z,4.83
2022-12-05T08:16:13.731Z,5.09
2022-12-05T08:18:42.074Z,5.10
2022-12-05T08:21:13.386Z,5.01
2022-12-05T08:23:41.975Z,5.20
2022-12-05T08:26:12.828Z,5.10
2022-12-05T08:28:40.758Z,5.25
2022-12-05T08:31:10.976Z,5.35
2022-12-05T08:33:39.525Z,5.21
2022-12-05T08:36:10.063Z,5.51
2022-12-05T08:38:39.808Z,5.47
2022-12-05T08:41:13.170Z,5.52
2022-12-05T08:43:41.352Z,5.55
2022-12-05T08:46:09.963Z,5.74
2022-12-05T08:48:38.434Z,5.75
2022-12-05T08:51:07.118Z,5.77
2022-12-05T08:53:40.951Z,5.78
2022-12-05T08:56:13.726Z,5.62
2022-12-05T08:58:42.353Z,5.86
2022-12-05T09:01:12.359Z,6.04
2022-12-05T09:03:46.062Z,6.18
2022-12-05T09:06:17.864Z,6.31
2022-12-05T09:08:46.695Z,6.20
2022-12-05T09:11:18.580Z,6.25
2022-12-05T09:13:48.123Z,6.35
2022-12-05T09:16:18.750Z,6.43
2022-12-05T09:18:47.064Z,6.52
2022-12-05T09:21:16.751Z,6.51
2022-12-05T09:23:45.237Z,6.72
2022-12-05T09:26:16.878Z,6.89
2022-12-05T09:28:45.324Z,6.96
2022-12-05T09:31:15.731Z,7.01
2022-12-05T09:33:43.811Z,7.03
2022-12-05T09:36:15.622Z,7.18
2022-12-05T09:38:43.806Z,6.99
2022-12-05T09:41:44.220Z,6.84
2022-12-05T09:44:20.749Z,6.91
2022-12-05T09:46:55.986Z,7.09
2022-12-05T09:49:25.558Z,7.12
2022-12-05T09:51:56.457Z,7.25
2022-12-05T09:54:26.218Z,7.13
2022-12-05T09:56:55.767Z,7.23
2022-12-05T09:59:23.743Z,7.43
2022-12-05T10:01:57.917Z,7.53
2022-12-05T10:05:00.670Z,7.47
2022-12-05T10:07:39.012Z,7.59
2022-12-05T10:10:25.233Z,7.75
2022-12-05T10:13:09.948Z,7.85
2022-12-05T10:15:45.139Z,7.68
2022-12-05T10:18:29.831Z,7.27
2022-12-05T10:21:01.479Z,7.59
2022-12-05T10:26:23.040Z,7.66
2022-12-05T10:28:59.861Z,8.05
2022-12-05T10:31:31.986Z,7.54
2022-12-05T10:34:05.741Z,7.69
2022-12-05T10:36:33.918Z,7.91
2022-12-05T10:39:03.803Z,7.87
2022-12-05T10:41:35.480Z,8.21
2022-12-05T10:44:06.383Z,8.35
2022-12-05T10:46:34.356Z,8.53
2022-12-05T10:49:02.560Z,8.31
2022-12-05T10:51:35.789Z,8.71
2022-12-05T10:54:17.493Z,8.58
2022-12-05T10:56:47.543Z,8.82
2022-12-05T10:59:19.161Z,8.91
2022-12-05T11:01:51.119Z,9.07
2022-12-05T11:04:26.587Z,9.16
2022-12-05T11:06:58.316Z,9.28
2022-12-05T11:09:28.639Z,9.29
2022-12-05T11:12:16.842Z,9.34
2022-12-05T11:14:58.878Z,9.09
2022-12-05T11:17:30.858Z,9.01
2022-12-05T11:19:58.875Z,9.32
2022-12-05T11:22:36.953Z,9.51
2022-12-05T11:25:25.940Z,9.75
2022-12-05T11:27:58.384Z,9.74
2022-12-05T11:30:30.953Z,9.85
2022-12-05T11:33:19.612Z,9.98
2022-12-05T11:35:48.053Z,10.06
2022-12-05T11:38:18.793Z,10.16
2022-12-05T11:40:54.614Z,10.19
2022-12-05T11:43:48.033Z,10.05
2022-12-05T11:46:30.088Z,10.16
2022-12-05T11:49:13.587Z,10.54
2022-12-05T11:51:47.139Z,11.27
2022-12-05T11:55:03.977Z,12.07
2022-12-05T11:57:36.414Z,12.70
2022-12-05T12:00:14.273Z,13.41
2022-12-05T12:03:05.971Z,13.46
2022-12-05T12:05:39.387Z,13.82
2022-12-05T12:08:18.064Z,15.11
2022-12-05T12:10:56.756Z,15.92
2022-12-05T12:13:36.918Z,16.82
2022-12-05T12:16:15.735Z,17.80
2022-12-05T12:19:11.917Z,17.70
2022-12-05T12:21:53.131Z,16.91
2022-12-05T12:24:32.979Z,16.96
2022-12-05T12:27:09.644Z,16.52
2022-12-05T12:29:53.233Z,16.39
2022-12-05T12:32:31.215Z,16.06
2022-12-05T12:35:26.631Z,16.05
2022-12-05T12:38:08.590Z,15.89
2022-12-05T12:40:44.904Z,15.61
2022-12-05T12:43:52.668Z,15.43
2022-12-05T12:46:30.007Z,15.08
2022-12-05T12:49:17.767Z,15.07
2022-12-05T12:51:54.524Z,15.16
2022-12-05T12:57:46.852Z,15.34
2022-12-05T13:00:32.267Z,14.95
2022-12-05T13:03:09.993Z,14.75
2022-12-05T13:05:43.844Z,14.78
2022-12-05T13:08:20.835Z,14.80
2022-12-05T13:10:50.686Z,14.60
2022-12-05T13:13:22.150Z,14.70
2022-12-05T13:15:54.462Z,14.45
2022-12-05T13:18:24.506Z,14.35
2022-12-05T13:21:00.238Z,14.47
2022-12-05T13:23:34.036Z,13.91
2022-12-05T13:26:08.638Z,14.21
2022-12-05T13:28:42.460Z,14.20
2022-12-05T13:31:16.738Z,13.85
2022-12-05T13:33:47.281Z,13.88
2022-12-05T13:36:35.670Z,13.69
2022-12-05T13:39:24.681Z,13.79
2022-12-05T13:42:12.898Z,13.77
2022-12-05T13:44:44.331Z,13.74
2022-12-05T13:47:28.465Z,13.72
2022-12-05T13:50:02.334Z,13.49
2022-12-05T13:52:32.855Z,13.54
2022-12-05T13:55:13.947Z,13.46
2022-12-05T13:57:48.953Z,13.15
2022-12-05T14:00:38.245Z,13.10
2022-12-05T14:03:16.327Z,12.93
2022-12-05T14:05:47.005Z,12.87
2022-12-05T14:09:03.240Z,12.76
2022-12-05T14:11:32.874Z,12.70
2022-12-05T14:14:04.538Z,12.55
2022-12-05T14:16:45.204Z,12.49
2022-12-05T14:19:56.433Z,12.29
2022-12-05T14:22:50.286Z,12.20
2022-12-05T14:25:58.107Z,12.06
2022-12-05T14:28:47.400Z,12.05
2022-12-05T14:31:35.384Z,12.00
2022-12-05T14:34:16.362Z,12.00
2022-12-05T14:36:54.909Z,11.82
2022-12-05T14:39:23.811Z,11.72
2022-12-05T14:41:58.716Z,11.67
2022-12-05T14:44:32.275Z,11.74
2022-12-05T14:47:03.322Z,11.80
2022-12-05T14:49:53.876Z,11.73
2022-12-05T14:52:23.662Z,11.73
2022-12-05T14:54:53.494Z,11.71
2022-12-05T14:57:23.118Z,11.72
2022-12-05T14:59:56.683Z,11.77
2022-12-05T15:02:28.453Z,11.60
2022-12-05T15:05:01.849Z,11.67
2022-12-05T15:07:34.757Z,11.15
2022-12-05T15:10:06.153Z,10.98
2022-12-05T15:12:41.026Z,11.26
2022-12-05T15:15:17.579Z,11.05
2022-12-05T15:17:50.205Z,11.25
2022-12-05T15:20:26.943Z,11.15
2022-12-05T15:22:55.271Z,10.82
2022-12-05T15:25:29.270Z,9.74
2022-12-05T15:28:00.421Z,9.93
2022-12-05T15:30:31.820Z,9.80
2022-12-05T15:33:00.557Z,9.00
2022-12-05T15:35:33.058Z,9.31
2022-12-05T15:38:09.455Z,8.87
2022-12-05T15:40:40.687Z,8.50
2022-12-05T15:43:28.836Z,8.22
2022-12-05T15:46:26.416Z,8.62
2022-12-05T15:49:00.602Z,8.44
2022-12-05T15:51:33.269Z,8.86
2022-12-05T15:54:08.973Z,8.03
2022-12-05T15:56:43.223Z,8.36
2022-12-05T15:59:18.443Z,9.31
2022-12-05T16:01:51.934Z,9.30
2022-12-05T16:04:29.196Z,9.19
2022-12-05T16:07:01.486Z,9.62
2022-12-05T16:09:33.531Z,10.01
2022-12-05T16:12:03.777Z,10.15
2022-12-05T16:17:24.935Z,10.21
2022-12-05T16:19:53.070Z,10.32
2022-12-05T16:22:25.011Z,10.35
2022-12-05T16:24:58.191Z,10.36
2022-12-05T16:27:27.753Z,10.05
2022-12-05T16:30:11.097Z,9.93
2022-12-05T16:32:41.331Z,10.01
2022-12-05T16:35:31.838Z,9.37
2022-12-05T16:38:15.631Z,9.23
2022-12-05T16:40:53.946Z,8.90
2022-12-05T16:43:27.174Z,8.76
2022-12-05T16:45:58.666Z,9.06
2022-12-05T16:48:29.877Z,8.86
2022-12-05T16:51:19.998Z,8.25
2022-12-05T16:53:50.516Z,8.62
2022-12-05T16:56:22.196Z,8.46
2022-12-05T16:58:50.203Z,8.26
2022-12-05T17:01:21.344Z,7.98
2022-12-05T17:03:51.148Z,8.11
2022-12-05T17:06:21.390Z,8.11
2022-12-05T17:08:49.313Z,7.89
2022-12-05T17:11:21.356Z,7.69
2022-12-05T17:13:50.680Z,7.78
2022-12-05T17:16:20.774Z,8.09
2022-12-05T17:18:51.681Z,7.63
2022-12-05T17:21:22.473Z,7.86
2022-12-05T17:23:50.728Z,8.10
2022-12-05T17:26:20.519Z,8.34
2022-12-05T17:28:49.212Z,8.68
2022-12-05T17:31:18.125Z,8.70
2022-12-05T17:33:46.872Z,8.99
2022-12-05T17:36:17.427Z,9.30
2022-12-05T17:38:46.102Z,9.17
2022-12-05T17:41:17.355Z,8.97
2022-12-05T17:43:46.030Z,9.23
2022-12-05T17:46:16.869Z,9.34
2022-12-05T17:48:44.906Z,9.39
2022-12-05T17:51:14.491Z,9.41
2022-12-05T17:53:44.634Z,9.05
2022-12-05T17:56:14.239Z,9.07
2022-12-05T17:58:43.024Z,8.90
2022-12-05T18:01:15.905Z,8.83
2022-12-05T18:03:44.206Z,8.81
2022-12-05T18:06:12.346Z,8.88
2022-12-05T18:08:42.158Z,8.77
2022-12-05T18:11:12.253Z,8.46
2022-12-05T18:13:40.304Z,8.50
2022-12-05T18:16:08.950Z,8.51
2022-12-05T18:18:37.054Z,8.64
2022-12-05T18:21:06.976Z,8.72
2022-12-05T18:23:36.842Z,8.27
2022-12-05T18:26:06.441Z,8.42
2022-12-05T18:28:37.583Z,8.84
2022-12-05T18:31:11.019Z,8.82
2022-12-05T18:33:39.216Z,9.00
2022-12-05T18:36:09.158Z,8.83
2022-12-05T18:38:37.368Z,8.60
2022-12-05T18:41:06.587Z,8.74
2022-12-05T18:43:36.503Z,8.70
2022-12-05T18:46:05.823Z,8.50
2022-12-05T18:48:39.988Z,8.59
2022-12-05T18:51:12.072Z,8.67
2022-12-05T18:53:40.423Z,8.71
2022-12-05T18:56:22.145Z,8.75
2022-12-05T18:58:56.475Z,8.81
2022-12-05T19:01:24.719Z,9.00
2022-12-05T19:03:52.862Z,9.19
2022-12-05T19:06:23.127Z,9.16
2022-12-05T19:08:54.632Z,9.05
2022-12-05T19:11:23.144Z,8.80
2022-12-05T19:13:51.253Z,8.91
2022-12-05T19:16:20.659Z,8.91
2022-12-05T19:18:48.733Z,8.48
2022-12-05T19:21:16.645Z,8.66
2022-12-05T19:23:44.608Z,8.91
2022-12-05T19:26:12.541Z,9.07
2022-12-05T19:28:40.687Z,9.17
2022-12-05T19:31:10.649Z,9.05
2022-12-05T19:33:41.397Z,8.99
2022-12-05T19:36:11.888Z,8.74
2022-12-05T19:38:41.752Z,9.11
2022-12-05T19:41:11.888Z,8.92
2022-12-05T19:43:40.476Z,9.10
2022-12-05T19:46:10.026Z,9.11
2022-12-05T19:48:39.519Z,9.11
2022-12-05T19:51:07.945Z,9.22
2022-12-05T19:53:38.048Z,8.82
2022-12-05T19:56:08.889Z,8.58
2022-12-05T19:58:37.493Z,8.80
2022-12-05T20:01:10.388Z,8.93
2022-12-05T20:03:40.200Z,8.60
2022-12-05T20:06:09.317Z,8.09
2022-12-05T20:08:38.160Z,8.16
2022-12-05T20:11:07.677Z,7.99
2022-12-05T20:13:51.858Z,8.21
2022-12-05T20:16:21.827Z,8.53
2022-12-05T20:18:51.565Z,8.25
2022-12-05T20:21:22.100Z,8.24
2022-12-05T20:23:50.210Z,8.47
2022-12-05T20:26:20.822Z,8.51
2022-12-05T20:28:48.895Z,8.17
2022-12-05T20:31:18.898Z,7.64
2022-12-05T20:33:47.395Z,7.89
2022-12-05T20:36:19.147Z,8.09
2022-12-05T20:38:48.094Z,7.82
2022-12-05T20:41:17.954Z,7.90
2022-12-05T20:43:48.444Z,7.78
2022-12-05T20:46:18.848Z,7.91
2022-12-05T20:48:47.966Z,7.62
2022-12-05T20:51:18.893Z,8.00
2022-12-05T20:53:47.892Z,8.48
2022-12-05T20:56:17.562Z,8.68
2022-12-05T20:58:46.711Z,8.83
2022-12-05T21:01:16.409Z,8.76
2022-12-05T21:03:45.715Z,8.63
2022-12-05T21:06:15.674Z,8.43
2022-12-05T21:08:45.400Z,8.19
2022-12-05T21:11:14.648Z,8.46
2022-12-05T21:13:42.987Z,8.64
2022-12-05T21:16:13.203Z,8.85
2022-12-05T21:18:42.063Z,8.78
2022-12-05T21:21:14.698Z,8.72
2022-12-05T21:23:44.347Z,8.75
2022-12-05T21:26:15.090Z,8.83
2022-12-05T21:28:44.152Z,8.97
2022-12-05T21:31:14.315Z,8.92
2022-12-05T21:33:43.723Z,9.00
2022-12-05T21:36:11.777Z,9.08
2022-12-05T21:38:39.689Z,9.08
2022-12-05T21:41:09.139Z,9.07
2022-12-05T21:43:37.886Z,8.95
2022-12-05T21:46:06.550Z,8.16
2022-12-05T21:48:35.603Z,7.88
2022-12-05T21:51:10.512Z,8.04
2022-12-05T21:53:38.520Z,7.86
2022-12-05T21:56:10.969Z,8.06
2022-12-05T21:58:42.358Z,8.56
2022-12-05T22:01:11.345Z,8.70
2022-12-05T22:03:39.642Z,8.66
2022-12-05T22:06:09.659Z,8.80
2022-12-05T22:08:39.140Z,8.67
2022-12-05T22:11:10.401Z,8.62
2022-12-05T22:13:38.653Z,8.83
2022-12-05T22:16:07.999Z,8.72
2022-12-05T22:18:36.222Z,8.48
2022-12-05T22:21:06.630Z,8.36
2022-12-05T22:23:36.136Z,8.31
2022-12-05T22:26:06.035Z,8.62
2022-12-05T22:28:36.113Z,8.74
2022-12-05T22:31:06.296Z,8.85
2022-12-05T22:33:36.730Z,8.83
2022-12-05T22:36:06.936Z,8.95
2022-12-05T22:38:36.955Z,8.96
2022-12-05T22:41:07.316Z,8.98
2022-12-05T22:43:38.109Z,9.01
2022-12-05T22:46:07.909Z,8.98
2022-12-05T22:48:36.485Z,9.03
2022-12-05T22:51:05.723Z,8.70
2022-12-05T22:53:34.065Z,8.81
2022-12-05T22:56:04.392Z,8.72
2022-12-05T22:58:32.947Z,8.91
2022-12-05T23:01:11.331Z,9.00
2022-12-05T23:03:39.533Z,8.66
2022-12-05T23:06:11.802Z,8.80
2022-12-05T23:08:41.225Z,8.93
2022-12-05T23:11:10.180Z,8.93
2022-12-05T23:13:39.446Z,8.86
2022-12-05T23:16:09.222Z,8.94
2022-12-05T23:18:46.911Z,8.95
2022-12-05T23:21:20.154Z,9.00
2022-12-05T23:23:49.303Z,8.97
2022-12-05T23:26:18.663Z,8.95
2022-12-05T23:28:46.862Z,8.94
2022-12-05T23:31:15.857Z,8.95
2022-12-05T23:33:47.591Z,9.02
2022-12-05T23:36:17.486Z,8.97
2022-12-05T23:38:45.467Z,9.03
2022-12-05T23:41:15.225Z,9.00
2022-12-05T23:43:44.192Z,8.89
2022-12-05T23:46:14.055Z,9.03
2022-12-05T23:48:42.522Z,9.03
2022-12-05T23:51:13.554Z,9.08
2022-12-05T23:53:43.556Z,9.10
2022-12-05T23:56:13.255Z,9.12
2022-12-05T23:58:41.867Z,9.15
